Pekin Mall, Illinois
Current Conditions -  °F | °C
As of 8:46 PM on Sunday 23 Nov 2014 (Local Time) from KPIA Reporting Station
Light Rain Light Rain  
Wind Chill: 51°   Ceiling: 200
Heat Index: 51°   Visibility: 1.7mi
Dew Point: 48°   Wind: 6mph
Humidity: 89%   Direction: 190°S
Pressure: 29.21"   Gusts: NA
Location:  40.5452°N, 89.6011°W
Report Text: KPIA 240246Z 19005KT 1 3/4SM -RA BR OVC002 11/09 A2921 RMK AO2 P0003 T01060089
Loading
Personal Weather Stations






























Interactive Weather Map New forecast layout! Learn more

10-Day Weather Forecast

Advertisements
Track Severe Weather on mobile